sensor_id;sensor_type;location;lat;lon;timestamp;temperature;humidity
67899;DHT22;54699;51.796;10.956;2022-08-27T00:00:18;25.90;58.60
67899;DHT22;54699;51.796;10.956;2022-08-27T00:02:46;25.90;58.60
67899;DHT22;54699;51.796;10.956;2022-08-27T00:05:15;25.90;58.60
67899;DHT22;54699;51.796;10.956;2022-08-27T00:07:43;25.90;58.60
67899;DHT22;54699;51.796;10.956;2022-08-27T00:10:11;25.90;58.60
67899;DHT22;54699;51.796;10.956;2022-08-27T00:12:40;25.90;58.60
67899;DHT22;54699;51.796;10.956;2022-08-27T00:15:07;25.90;58.60
67899;DHT22;54699;51.796;10.956;2022-08-27T00:17:35;25.90;58.60
67899;DHT22;54699;51.796;10.956;2022-08-27T00:20:02;25.90;58.70
67899;DHT22;54699;51.796;10.956;2022-08-27T00:22:32;25.90;58.60
67899;DHT22;54699;51.796;10.956;2022-08-27T00:24:59;25.90;58.70
67899;DHT22;54699;51.796;10.956;2022-08-27T00:27:26;25.90;58.70
67899;DHT22;54699;51.796;10.956;2022-08-27T00:29:52;25.90;58.80
67899;DHT22;54699;51.796;10.956;2022-08-27T00:32:19;25.90;58.70
67899;DHT22;54699;51.796;10.956;2022-08-27T00:34:46;25.90;58.70
67899;DHT22;54699;51.796;10.956;2022-08-27T00:37:13;25.90;58.80
67899;DHT22;54699;51.796;10.956;2022-08-27T00:39:41;25.90;58.70
67899;DHT22;54699;51.796;10.956;2022-08-27T00:42:08;25.90;58.80
67899;DHT22;54699;51.796;10.956;2022-08-27T00:44:35;25.90;58.80
67899;DHT22;54699;51.796;10.956;2022-08-27T00:47:04;25.90;58.90
67899;DHT22;54699;51.796;10.956;2022-08-27T00:49:41;25.90;59.20
67899;DHT22;54699;51.796;10.956;2022-08-27T00:52:12;25.90;58.80
67899;DHT22;54699;51.796;10.956;2022-08-27T00:54:47;25.90;58.80
67899;DHT22;54699;51.796;10.956;2022-08-27T00:57:14;25.90;58.90
67899;DHT22;54699;51.796;10.956;2022-08-27T00:59:42;25.80;58.80
67899;DHT22;54699;51.796;10.956;2022-08-27T01:02:09;25.90;58.90
67899;DHT22;54699;51.796;10.956;2022-08-27T01:04:46;25.80;58.90
67899;DHT22;54699;51.796;10.956;2022-08-27T01:07:15;25.90;58.90
67899;DHT22;54699;51.796;10.956;2022-08-27T01:09:43;25.80;58.90
67899;DHT22;54699;51.796;10.956;2022-08-27T01:12:13;25.80;58.90
67899;DHT22;54699;51.796;10.956;2022-08-27T01:14:41;25.80;58.90
67899;DHT22;54699;51.796;10.956;2022-08-27T01:17:10;25.80;58.90
67899;DHT22;54699;51.796;10.956;2022-08-27T01:19:40;25.80;59.00
67899;DHT22;54699;51.796;10.956;2022-08-27T01:22:21;25.80;58.90
67899;DHT22;54699;51.796;10.956;2022-08-27T01:24:57;25.80;59.00
67899;DHT22;54699;51.796;10.956;2022-08-27T01:27:27;25.80;59.00
67899;DHT22;54699;51.796;10.956;2022-08-27T01:29:56;25.80;59.00
67899;DHT22;54699;51.796;10.956;2022-08-27T01:32:25;25.80;59.00
67899;DHT22;54699;51.796;10.956;2022-08-27T01:34:53;25.90;59.00
67899;DHT22;54699;51.796;10.956;2022-08-27T01:37:21;25.80;58.90
67899;DHT22;54699;51.796;10.956;2022-08-27T01:39:50;25.80;59.00
67899;DHT22;54699;51.796;10.956;2022-08-27T01:42:19;25.90;59.00
67899;DHT22;54699;51.796;10.956;2022-08-27T01:44:49;25.80;59.00
67899;DHT22;54699;51.796;10.956;2022-08-27T01:47:19;25.80;59.00
67899;DHT22;54699;51.796;10.956;2022-08-27T01:49:48;25.80;59.00
67899;DHT22;54699;51.796;10.956;2022-08-27T01:52:15;25.80;59.10
67899;DHT22;54699;51.796;10.956;2022-08-27T01:54:45;25.80;59.10
67899;DHT22;54699;51.796;10.956;2022-08-27T01:57:13;25.80;59.10
67899;DHT22;54699;51.796;10.956;2022-08-27T01:59:42;25.80;59.00
67899;DHT22;54699;51.796;10.956;2022-08-27T02:02:09;25.80;59.00
67899;DHT22;54699;51.796;10.956;2022-08-27T02:04:37;25.80;59.10
67899;DHT22;54699;51.796;10.956;2022-08-27T02:07:04;25.80;59.10
67899;DHT22;54699;51.796;10.956;2022-08-27T02:09:31;25.80;59.10
67899;DHT22;54699;51.796;10.956;2022-08-27T02:11:58;25.80;59.20
67899;DHT22;54699;51.796;10.956;2022-08-27T02:14:26;25.80;59.10
67899;DHT22;54699;51.796;10.956;2022-08-27T02:16:54;25.80;59.10
67899;DHT22;54699;51.796;10.956;2022-08-27T02:19:22;25.80;59.10
67899;DHT22;54699;51.796;10.956;2022-08-27T02:21:49;25.80;59.20
67899;DHT22;54699;51.796;10.956;2022-08-27T02:24:15;25.80;59.10
67899;DHT22;54699;51.796;10.956;2022-08-27T02:26:42;25.80;59.10
67899;DHT22;54699;51.796;10.956;2022-08-27T02:29:09;25.80;59.20
67899;DHT22;54699;51.796;10.956;2022-08-27T02:31:36;25.80;59.20
67899;DHT22;54699;51.796;10.956;2022-08-27T02:34:05;25.80;59.20
67899;DHT22;54699;51.796;10.956;2022-08-27T02:36:32;25.80;59.20
67899;DHT22;54699;51.796;10.956;2022-08-27T02:39:01;25.80;59.20
67899;DHT22;54699;51.796;10.956;2022-08-27T02:41:28;25.80;59.20
67899;DHT22;54699;51.796;10.956;2022-08-27T02:43:55;25.80;59.10
67899;DHT22;54699;51.796;10.956;2022-08-27T02:46:22;25.80;59.30
67899;DHT22;54699;51.796;10.956;2022-08-27T02:48:49;25.70;59.20
67899;DHT22;54699;51.796;10.956;2022-08-27T02:51:17;25.80;59.30
67899;DHT22;54699;51.796;10.956;2022-08-27T02:53:44;25.70;59.20
67899;DHT22;54699;51.796;10.956;2022-08-27T02:56:12;25.80;59.30
67899;DHT22;54699;51.796;10.956;2022-08-27T02:58:39;25.70;59.30
67899;DHT22;54699;51.796;10.956;2022-08-27T03:01:06;25.70;59.30
67899;DHT22;54699;51.796;10.956;2022-08-27T03:03:32;25.70;59.30
67899;DHT22;54699;51.796;10.956;2022-08-27T03:05:59;25.70;59.30
67899;DHT22;54699;51.796;10.956;2022-08-27T03:08:27;25.70;59.20
67899;DHT22;54699;51.796;10.956;2022-08-27T03:10:55;25.70;59.20
67899;DHT22;54699;51.796;10.956;2022-08-27T03:13:22;25.70;59.20
67899;DHT22;54699;51.796;10.956;2022-08-27T03:15:50;25.70;59.30
67899;DHT22;54699;51.796;10.956;2022-08-27T03:18:17;25.70;59.30
67899;DHT22;54699;51.796;10.956;2022-08-27T03:20:44;25.70;59.30
67899;DHT22;54699;51.796;10.956;2022-08-27T03:23:13;25.70;59.40
67899;DHT22;54699;51.796;10.956;2022-08-27T03:25:43;25.70;59.40
67899;DHT22;54699;51.796;10.956;2022-08-27T03:28:12;25.70;59.30
67899;DHT22;54699;51.796;10.956;2022-08-27T03:30:40;25.70;59.40
67899;DHT22;54699;51.796;10.956;2022-08-27T03:33:10;25.70;59.40
67899;DHT22;54699;51.796;10.956;2022-08-27T03:35:37;25.70;59.40
67899;DHT22;54699;51.796;10.956;2022-08-27T03:38:04;25.70;59.40
67899;DHT22;54699;51.796;10.956;2022-08-27T03:40:31;25.70;59.50
67899;DHT22;54699;51.796;10.956;2022-08-27T03:42:58;25.70;59.40
67899;DHT22;54699;51.796;10.956;2022-08-27T03:45:25;25.70;59.50
67899;DHT22;54699;51.796;10.956;2022-08-27T03:47:52;25.70;59.40
67899;DHT22;54699;51.796;10.956;2022-08-27T03:50:18;25.70;59.40
67899;DHT22;54699;51.796;10.956;2022-08-27T03:52:45;25.70;59.50
67899;DHT22;54699;51.796;10.956;2022-08-27T03:55:12;25.70;59.40
67899;DHT22;54699;51.796;10.956;2022-08-27T03:57:40;25.70;59.50
67899;DHT22;54699;51.796;10.956;2022-08-27T04:00:09;25.70;59.50
67899;DHT22;54699;51.796;10.956;2022-08-27T04:02:37;25.60;60.40
67899;DHT22;54699;51.796;10.956;2022-08-27T04:05:04;25.70;59.50
67899;DHT22;54699;51.796;10.956;2022-08-27T04:07:32;25.70;59.40
67899;DHT22;54699;51.796;10.956;2022-08-27T04:09:58;25.70;59.40
67899;DHT22;54699;51.796;10.956;2022-08-27T04:12:25;25.70;59.50
67899;DHT22;54699;51.796;10.956;2022-08-27T04:14:52;25.60;59.40
67899;DHT22;54699;51.796;10.956;2022-08-27T04:17:20;25.60;59.50
67899;DHT22;54699;51.796;10.956;2022-08-27T04:19:46;25.70;59.50
67899;DHT22;54699;51.796;10.956;2022-08-27T04:22:13;25.60;59.50
67899;DHT22;54699;51.796;10.956;2022-08-27T04:24:40;25.60;59.50
67899;DHT22;54699;51.796;10.956;2022-08-27T04:27:07;25.60;59.50
67899;DHT22;54699;51.796;10.956;2022-08-27T04:29:35;25.60;59.50
67899;DHT22;54699;51.796;10.956;2022-08-27T04:32:02;25.70;59.60
67899;DHT22;54699;51.796;10.956;2022-08-27T04:34:31;25.60;59.60
67899;DHT22;54699;51.796;10.956;2022-08-27T04:36:58;25.60;59.60
67899;DHT22;54699;51.796;10.956;2022-08-27T04:39:25;25.60;59.60
67899;DHT22;54699;51.796;10.956;2022-08-27T04:41:54;25.60;59.50
67899;DHT22;54699;51.796;10.956;2022-08-27T04:44:22;25.60;59.60
67899;DHT22;54699;51.796;10.956;2022-08-27T04:46:53;25.60;59.60
67899;DHT22;54699;51.796;10.956;2022-08-27T04:49:21;25.60;59.60
67899;DHT22;54699;51.796;10.956;2022-08-27T04:51:49;25.60;59.60
67899;DHT22;54699;51.796;10.956;2022-08-27T04:54:15;25.60;59.60
67899;DHT22;54699;51.796;10.956;2022-08-27T04:56:42;25.60;59.60
67899;DHT22;54699;51.796;10.956;2022-08-27T04:59:09;25.60;59.60
67899;DHT22;54699;51.796;10.956;2022-08-27T05:01:37;25.60;59.60
67899;DHT22;54699;51.796;10.956;2022-08-27T05:04:05;25.60;59.60
67899;DHT22;54699;51.796;10.956;2022-08-27T05:06:33;25.60;59.60
67899;DHT22;54699;51.796;10.956;2022-08-27T05:09:03;25.60;59.80
67899;DHT22;54699;51.796;10.956;2022-08-27T05:11:30;25.60;59.70
67899;DHT22;54699;51.796;10.956;2022-08-27T05:14:00;25.60;59.70
67899;DHT22;54699;51.796;10.956;2022-08-27T05:16:28;25.60;59.70
67899;DHT22;54699;51.796;10.956;2022-08-27T05:18:56;25.60;59.80
67899;DHT22;54699;51.796;10.956;2022-08-27T05:21:24;25.60;59.80
67899;DHT22;54699;51.796;10.956;2022-08-27T05:23:52;25.60;59.80
67899;DHT22;54699;51.796;10.956;2022-08-27T05:26:22;25.60;59.70
67899;DHT22;54699;51.796;10.956;2022-08-27T05:28:49;25.60;59.80
67899;DHT22;54699;51.796;10.956;2022-08-27T05:31:17;25.60;59.80
67899;DHT22;54699;51.796;10.956;2022-08-27T05:33:44;25.60;59.90
67899;DHT22;54699;51.796;10.956;2022-08-27T05:36:15;25.60;59.80
67899;DHT22;54699;51.796;10.956;2022-08-27T05:38:43;25.60;59.80
67899;DHT22;54699;51.796;10.956;2022-08-27T05:41:11;25.60;59.80
67899;DHT22;54699;51.796;10.956;2022-08-27T05:43:41;25.60;59.90
67899;DHT22;54699;51.796;10.956;2022-08-27T05:46:09;25.60;59.90
67899;DHT22;54699;51.796;10.956;2022-08-27T05:48:37;25.60;60.00
67899;DHT22;54699;51.796;10.956;2022-08-27T05:51:06;25.60;59.90
67899;DHT22;54699;51.796;10.956;2022-08-27T05:53:34;25.60;60.00
67899;DHT22;54699;51.796;10.956;2022-08-27T05:56:01;25.60;60.10
67899;DHT22;54699;51.796;10.956;2022-08-27T05:58:28;25.60;60.00
67899;DHT22;54699;51.796;10.956;2022-08-27T06:01:14;25.60;60.00
67899;DHT22;54699;51.796;10.956;2022-08-27T06:03:42;25.60;60.10
67899;DHT22;54699;51.796;10.956;2022-08-27T06:06:11;25.60;60.20
67899;DHT22;54699;51.796;10.956;2022-08-27T06:08:38;25.60;60.10
67899;DHT22;54699;51.796;10.956;2022-08-27T06:11:05;25.60;60.20
67899;DHT22;54699;51.796;10.956;2022-08-27T06:13:33;25.60;60.30
67899;DHT22;54699;51.796;10.956;2022-08-27T06:16:01;25.60;60.20
67899;DHT22;54699;51.796;10.956;2022-08-27T06:18:31;25.60;60.30
67899;DHT22;54699;51.796;10.956;2022-08-27T06:20:58;25.60;60.20
67899;DHT22;54699;51.796;10.956;2022-08-27T06:23:25;25.60;60.30
67899;DHT22;54699;51.796;10.956;2022-08-27T06:25:53;25.60;60.30
67899;DHT22;54699;51.796;10.956;2022-08-27T06:28:19;25.60;60.30
67899;DHT22;54699;51.796;10.956;2022-08-27T06:30:47;25.60;60.40
67899;DHT22;54699;51.796;10.956;2022-08-27T06:33:14;25.60;60.40
67899;DHT22;54699;51.796;10.956;2022-08-27T06:35:42;25.60;60.50
67899;DHT22;54699;51.796;10.956;2022-08-27T06:38:09;25.60;60.50
67899;DHT22;54699;51.796;10.956;2022-08-27T06:40:38;25.60;60.50
67899;DHT22;54699;51.796;10.956;2022-08-27T06:43:06;25.60;60.50
67899;DHT22;54699;51.796;10.956;2022-08-27T06:45:35;25.60;60.40
67899;DHT22;54699;51.796;10.956;2022-08-27T06:48:03;25.60;60.50
67899;DHT22;54699;51.796;10.956;2022-08-27T06:50:35;25.60;60.50
67899;DHT22;54699;51.796;10.956;2022-08-27T06:53:04;25.60;60.50
67899;DHT22;54699;51.796;10.956;2022-08-27T06:55:31;25.60;60.50
67899;DHT22;54699;51.796;10.956;2022-08-27T06:57:58;25.60;60.60
67899;DHT22;54699;51.796;10.956;2022-08-27T07:00:24;25.60;60.60
67899;DHT22;54699;51.796;10.956;2022-08-27T07:02:51;25.60;60.70
67899;DHT22;54699;51.796;10.956;2022-08-27T07:05:18;25.50;60.60
67899;DHT22;54699;51.796;10.956;2022-08-27T07:07:45;25.60;60.80
67899;DHT22;54699;51.796;10.956;2022-08-27T07:10:13;25.60;60.70
67899;DHT22;54699;51.796;10.956;2022-08-27T07:12:40;25.60;60.70
67899;DHT22;54699;51.796;10.956;2022-08-27T07:15:07;25.60;60.60
67899;DHT22;54699;51.796;10.956;2022-08-27T07:17:35;25.60;60.80
67899;DHT22;54699;51.796;10.956;2022-08-27T07:20:02;25.60;60.80
67899;DHT22;54699;51.796;10.956;2022-08-27T07:22:30;25.60;60.90
67899;DHT22;54699;51.796;10.956;2022-08-27T07:24:57;25.60;60.90
67899;DHT22;54699;51.796;10.956;2022-08-27T07:27:25;25.60;60.90
67899;DHT22;54699;51.796;10.956;2022-08-27T07:29:51;25.60;60.90
67899;DHT22;54699;51.796;10.956;2022-08-27T07:32:18;25.60;60.90
67899;DHT22;54699;51.796;10.956;2022-08-27T07:34:44;25.50;60.90
67899;DHT22;54699;51.796;10.956;2022-08-27T07:37:11;25.60;61.00
67899;DHT22;54699;51.796;10.956;2022-08-27T07:39:39;25.60;61.00
67899;DHT22;54699;51.796;10.956;2022-08-27T07:42:05;25.50;61.00
67899;DHT22;54699;51.796;10.956;2022-08-27T07:44:51;25.50;61.10
67899;DHT22;54699;51.796;10.956;2022-08-27T07:47:18;25.60;61.20
67899;DHT22;54699;51.796;10.956;2022-08-27T07:49:44;25.50;61.10
67899;DHT22;54699;51.796;10.956;2022-08-27T07:52:11;25.60;61.20
67899;DHT22;54699;51.796;10.956;2022-08-27T07:54:40;25.60;61.30
67899;DHT22;54699;51.796;10.956;2022-08-27T07:57:07;25.60;61.30
67899;DHT22;54699;51.796;10.956;2022-08-27T07:59:34;25.60;61.40
67899;DHT22;54699;51.796;10.956;2022-08-27T08:02:02;25.60;61.40
67899;DHT22;54699;51.796;10.956;2022-08-27T08:04:29;25.50;61.30
67899;DHT22;54699;51.796;10.956;2022-08-27T08:06:56;25.50;61.50
67899;DHT22;54699;51.796;10.956;2022-08-27T08:09:22;25.60;61.60
67899;DHT22;54699;51.796;10.956;2022-08-27T08:11:50;25.50;61.50
67899;DHT22;54699;51.796;10.956;2022-08-27T08:14:17;25.60;61.60
67899;DHT22;54699;51.796;10.956;2022-08-27T08:16:44;25.60;61.60
67899;DHT22;54699;51.796;10.956;2022-08-27T08:19:12;25.60;61.60
67899;DHT22;54699;51.796;10.956;2022-08-27T08:21:39;25.50;61.60
67899;DHT22;54699;51.796;10.956;2022-08-27T08:24:08;25.60;61.70
67899;DHT22;54699;51.796;10.956;2022-08-27T08:26:34;25.60;61.80
67899;DHT22;54699;51.796;10.956;2022-08-27T08:29:01;25.50;61.80
67899;DHT22;54699;51.796;10.956;2022-08-27T08:31:29;25.50;61.80
67899;DHT22;54699;51.796;10.956;2022-08-27T08:33:55;25.50;61.90
67899;DHT22;54699;51.796;10.956;2022-08-27T08:36:23;25.50;61.90
67899;DHT22;54699;51.796;10.956;2022-08-27T08:38:50;25.50;61.90
67899;DHT22;54699;51.796;10.956;2022-08-27T08:41:26;25.50;61.80
67899;DHT22;54699;51.796;10.956;2022-08-27T08:44:06;25.50;61.90
67899;DHT22;54699;51.796;10.956;2022-08-27T08:46:40;25.50;62.00
67899;DHT22;54699;51.796;10.956;2022-08-27T08:49:15;25.50;62.00
67899;DHT22;54699;51.796;10.956;2022-08-27T08:54:57;25.50;62.10
67899;DHT22;54699;51.796;10.956;2022-08-27T08:57:32;25.50;62.10
67899;DHT22;54699;51.796;10.956;2022-08-27T09:00:06;25.60;62.20
67899;DHT22;54699;51.796;10.956;2022-08-27T09:02:36;25.50;62.00
67899;DHT22;54699;51.796;10.956;2022-08-27T09:05:04;25.60;62.10
67899;DHT22;54699;51.796;10.956;2022-08-27T09:07:34;25.60;62.20
67899;DHT22;54699;51.796;10.956;2022-08-27T09:10:09;25.50;62.10
67899;DHT22;54699;51.796;10.956;2022-08-27T09:12:45;25.60;62.20
67899;DHT22;54699;51.796;10.956;2022-08-27T09:15:13;25.60;62.20
67899;DHT22;54699;51.796;10.956;2022-08-27T09:17:42;25.50;62.20
67899;DHT22;54699;51.796;10.956;2022-08-27T09:20:12;25.50;62.20
67899;DHT22;54699;51.796;10.956;2022-08-27T09:22:45;25.50;62.20
67899;DHT22;54699;51.796;10.956;2022-08-27T09:25:20;25.50;62.30
67899;DHT22;54699;51.796;10.956;2022-08-27T09:27:51;25.50;62.20
67899;DHT22;54699;51.796;10.956;2022-08-27T09:30:21;25.50;62.30
67899;DHT22;54699;51.796;10.956;2022-08-27T09:32:51;25.60;62.40
67899;DHT22;54699;51.796;10.956;2022-08-27T09:35:20;25.50;62.30
67899;DHT22;54699;51.796;10.956;2022-08-27T09:37:51;25.50;62.50
67899;DHT22;54699;51.796;10.956;2022-08-27T09:40:24;25.50;62.50
67899;DHT22;54699;51.796;10.956;2022-08-27T09:42:56;25.50;62.50
67899;DHT22;54699;51.796;10.956;2022-08-27T09:45:30;25.50;62.50
67899;DHT22;54699;51.796;10.956;2022-08-27T09:48:01;25.60;62.90
67899;DHT22;54699;51.796;10.956;2022-08-27T09:50:31;25.50;62.80
67899;DHT22;54699;51.796;10.956;2022-08-27T09:53:04;25.50;62.80
67899;DHT22;54699;51.796;10.956;2022-08-27T09:55:46;25.50;62.80
67899;DHT22;54699;51.796;10.956;2022-08-27T09:58:16;25.50;62.80
67899;DHT22;54699;51.796;10.956;2022-08-27T10:00:45;25.60;62.90
67899;DHT22;54699;51.796;10.956;2022-08-27T10:03:14;25.60;63.00
67899;DHT22;54699;51.796;10.956;2022-08-27T10:05:43;25.60;63.00
67899;DHT22;54699;51.796;10.956;2022-08-27T10:08:18;25.60;63.00
67899;DHT22;54699;51.796;10.956;2022-08-27T10:10:51;25.60;63.00
67899;DHT22;54699;51.796;10.956;2022-08-27T10:13:22;25.60;63.00
67899;DHT22;54699;51.796;10.956;2022-08-27T10:16:08;25.60;63.20
67899;DHT22;54699;51.796;10.956;2022-08-27T10:18:51;25.60;63.30
67899;DHT22;54699;51.796;10.956;2022-08-27T10:21:29;25.50;63.50
67899;DHT22;54699;51.796;10.956;2022-08-27T10:24:09;25.60;63.50
67899;DHT22;54699;51.796;10.956;2022-08-27T10:26:49;25.60;63.50
67899;DHT22;54699;51.796;10.956;2022-08-27T10:29:23;25.50;63.40
67899;DHT22;54699;51.796;10.956;2022-08-27T10:32:01;25.60;63.50
67899;DHT22;54699;51.796;10.956;2022-08-27T10:34:37;25.60;63.70
67899;DHT22;54699;51.796;10.956;2022-08-27T10:37:14;25.60;63.60
67899;DHT22;54699;51.796;10.956;2022-08-27T10:39:53;25.60;63.60
67899;DHT22;54699;51.796;10.956;2022-08-27T10:42:34;25.60;63.70
67899;DHT22;54699;51.796;10.956;2022-08-27T10:45:08;25.60;63.80
67899;DHT22;54699;51.796;10.956;2022-08-27T10:47:50;25.60;63.90
67899;DHT22;54699;51.796;10.956;2022-08-27T10:50:25;25.60;63.90
67899;DHT22;54699;51.796;10.956;2022-08-27T10:52:55;25.50;63.70
67899;DHT22;54699;51.796;10.956;2022-08-27T10:55:28;25.60;63.80
67899;DHT22;54699;51.796;10.956;2022-08-27T10:58:04;25.60;63.80
67899;DHT22;54699;51.796;10.956;2022-08-27T11:00:53;25.60;63.80
67899;DHT22;54699;51.796;10.956;2022-08-27T11:03:28;25.60;63.90
67899;DHT22;54699;51.796;10.956;2022-08-27T11:06:01;25.60;63.90
67899;DHT22;54699;51.796;10.956;2022-08-27T11:08:34;25.60;64.00
67899;DHT22;54699;51.796;10.956;2022-08-27T11:11:09;25.60;64.00
67899;DHT22;54699;51.796;10.956;2022-08-27T11:13:38;25.60;64.00
67899;DHT22;54699;51.796;10.956;2022-08-27T11:16:13;25.60;64.00
67899;DHT22;54699;51.796;10.956;2022-08-27T11:18:43;25.60;63.90
67899;DHT22;54699;51.796;10.956;2022-08-27T11:21:16;25.60;64.10
67899;DHT22;54699;51.796;10.956;2022-08-27T11:23:50;25.60;63.90
67899;DHT22;54699;51.796;10.956;2022-08-27T11:26:22;25.60;64.00
67899;DHT22;54699;51.796;10.956;2022-08-27T11:28:50;25.60;64.00
67899;DHT22;54699;51.796;10.956;2022-08-27T11:31:21;25.60;63.90
67899;DHT22;54699;51.796;10.956;2022-08-27T11:33:58;25.60;64.00
67899;DHT22;54699;51.796;10.956;2022-08-27T11:36:35;25.50;64.00
67899;DHT22;54699;51.796;10.956;2022-08-27T11:39:19;25.60;64.00
67899;DHT22;54699;51.796;10.956;2022-08-27T11:42:01;25.60;64.10
67899;DHT22;54699;51.796;10.956;2022-08-27T11:44:32;25.60;63.90
67899;DHT22;54699;51.796;10.956;2022-08-27T11:47:08;25.60;64.00
67899;DHT22;54699;51.796;10.956;2022-08-27T11:49:42;25.60;63.90
67899;DHT22;54699;51.796;10.956;2022-08-27T11:52:11;25.50;64.00
67899;DHT22;54699;51.796;10.956;2022-08-27T11:54:47;25.50;63.90
67899;DHT22;54699;51.796;10.956;2022-08-27T11:57:25;25.60;64.00
67899;DHT22;54699;51.796;10.956;2022-08-27T11:59:54;25.60;64.00
67899;DHT22;54699;51.796;10.956;2022-08-27T12:02:22;25.60;64.00
67899;DHT22;54699;51.796;10.956;2022-08-27T12:04:50;25.50;64.00
67899;DHT22;54699;51.796;10.956;2022-08-27T12:07:32;25.50;63.90
67899;DHT22;54699;51.796;10.956;2022-08-27T12:10:04;25.50;63.90
67899;DHT22;54699;51.796;10.956;2022-08-27T12:12:48;25.60;63.90
67899;DHT22;54699;51.796;10.956;2022-08-27T12:15:26;25.50;63.90
67899;DHT22;54699;51.796;10.956;2022-08-27T12:18:07;25.50;63.90
67899;DHT22;54699;51.796;10.956;2022-08-27T12:20:48;25.60;63.90
67899;DHT22;54699;51.796;10.956;2022-08-27T12:23:22;25.60;63.90
67899;DHT22;54699;51.796;10.956;2022-08-27T12:29:19;25.50;63.80
67899;DHT22;54699;51.796;10.956;2022-08-27T12:31:49;25.50;63.70
67899;DHT22;54699;51.796;10.956;2022-08-27T12:34:21;25.50;63.80
67899;DHT22;54699;51.796;10.956;2022-08-27T12:36:51;25.50;63.80
67899;DHT22;54699;51.796;10.956;2022-08-27T12:39:20;25.50;63.70
67899;DHT22;54699;51.796;10.956;2022-08-27T12:41:50;25.50;63.90
67899;DHT22;54699;51.796;10.956;2022-08-27T12:44:23;25.50;63.90
67899;DHT22;54699;51.796;10.956;2022-08-27T12:46:53;25.50;63.90
67899;DHT22;54699;51.796;10.956;2022-08-27T12:49:27;25.60;64.00
67899;DHT22;54699;51.796;10.956;2022-08-27T12:52:01;25.60;64.00
67899;DHT22;54699;51.796;10.956;2022-08-27T12:54:39;25.60;64.00
67899;DHT22;54699;51.796;10.956;2022-08-27T12:57:16;25.60;64.00
67899;DHT22;54699;51.796;10.956;2022-08-27T12:59:59;25.50;64.10
67899;DHT22;54699;51.796;10.956;2022-08-27T13:02:40;25.50;64.00
67899;DHT22;54699;51.796;10.956;2022-08-27T13:05:21;25.60;64.10
67899;DHT22;54699;51.796;10.956;2022-08-27T13:07:49;25.60;64.00
67899;DHT22;54699;51.796;10.956;2022-08-27T13:10:18;25.60;64.10
67899;DHT22;54699;51.796;10.956;2022-08-27T13:12:47;25.60;64.10
67899;DHT22;54699;51.796;10.956;2022-08-27T13:15:28;25.60;64.10
67899;DHT22;54699;51.796;10.956;2022-08-27T13:17:55;25.60;64.20
67899;DHT22;54699;51.796;10.956;2022-08-27T13:20:23;25.60;64.10
67899;DHT22;54699;51.796;10.956;2022-08-27T13:22:52;25.60;64.10
67899;DHT22;54699;51.796;10.956;2022-08-27T13:25:23;25.60;64.10
67899;DHT22;54699;51.796;10.956;2022-08-27T13:27:54;25.60;64.00
67899;DHT22;54699;51.796;10.956;2022-08-27T13:30:24;25.60;64.10
67899;DHT22;54699;51.796;10.956;2022-08-27T13:32:54;25.60;64.10
67899;DHT22;54699;51.796;10.956;2022-08-27T13:35:22;25.60;64.10
67899;DHT22;54699;51.796;10.956;2022-08-27T13:37:50;25.60;64.20
67899;DHT22;54699;51.796;10.956;2022-08-27T13:40:22;25.60;64.10
67899;DHT22;54699;51.796;10.956;2022-08-27T13:42:53;25.60;64.40
67899;DHT22;54699;51.796;10.956;2022-08-27T13:45:21;25.60;64.20
67899;DHT22;54699;51.796;10.956;2022-08-27T13:47:48;25.60;64.00
67899;DHT22;54699;51.796;10.956;2022-08-27T13:50:20;25.60;64.10
67899;DHT22;54699;51.796;10.956;2022-08-27T13:52:49;25.60;63.90
67899;DHT22;54699;51.796;10.956;2022-08-27T13:55:36;25.60;63.80
67899;DHT22;54699;51.796;10.956;2022-08-27T13:58:11;25.60;63.70
67899;DHT22;54699;51.796;10.956;2022-08-27T14:00:39;25.60;63.70
67899;DHT22;54699;51.796;10.956;2022-08-27T14:03:21;25.60;63.60
67899;DHT22;54699;51.796;10.956;2022-08-27T14:05:50;25.60;63.60
67899;DHT22;54699;51.796;10.956;2022-08-27T14:08:17;25.60;63.60
67899;DHT22;54699;51.796;10.956;2022-08-27T14:10:48;25.60;63.60
67899;DHT22;54699;51.796;10.956;2022-08-27T14:13:23;25.60;63.60
67899;DHT22;54699;51.796;10.956;2022-08-27T14:15:50;25.60;63.50
67899;DHT22;54699;51.796;10.956;2022-08-27T14:18:22;25.60;63.30
67899;DHT22;54699;51.796;10.956;2022-08-27T14:20:53;25.60;63.30
67899;DHT22;54699;51.796;10.956;2022-08-27T14:23:21;25.60;63.20
67899;DHT22;54699;51.796;10.956;2022-08-27T14:25:48;25.60;63.20
67899;DHT22;54699;51.796;10.956;2022-08-27T14:28:15;25.60;63.10
67899;DHT22;54699;51.796;10.956;2022-08-27T14:30:42;25.60;63.00
67899;DHT22;54699;51.796;10.956;2022-08-27T14:33:09;25.60;63.00
67899;DHT22;54699;51.796;10.956;2022-08-27T14:35:37;25.60;62.90
67899;DHT22;54699;51.796;10.956;2022-08-27T14:38:07;25.60;63.00
67899;DHT22;54699;51.796;10.956;2022-08-27T14:40:39;25.60;63.00
67899;DHT22;54699;51.796;10.956;2022-08-27T14:43:05;25.60;62.90
67899;DHT22;54699;51.796;10.956;2022-08-27T14:45:32;25.60;62.80
67899;DHT22;54699;51.796;10.956;2022-08-27T14:48:01;25.60;62.80
67899;DHT22;54699;51.796;10.956;2022-08-27T14:50:30;25.60;62.80
67899;DHT22;54699;51.796;10.956;2022-08-27T14:52:57;25.60;62.90
67899;DHT22;54699;51.796;10.956;2022-08-27T14:55:25;25.60;62.80
67899;DHT22;54699;51.796;10.956;2022-08-27T14:57:52;25.60;62.80
67899;DHT22;54699;51.796;10.956;2022-08-27T15:00:18;25.60;62.70
67899;DHT22;54699;51.796;10.956;2022-08-27T15:02:46;25.60;62.60
67899;DHT22;54699;51.796;10.956;2022-08-27T15:05:13;25.60;62.60
67899;DHT22;54699;51.796;10.956;2022-08-27T15:07:41;25.60;62.60
67899;DHT22;54699;51.796;10.956;2022-08-27T15:10:07;25.60;62.60
67899;DHT22;54699;51.796;10.956;2022-08-27T15:12:36;25.60;62.50
67899;DHT22;54699;51.796;10.956;2022-08-27T15:15:04;25.60;62.50
67899;DHT22;54699;51.796;10.956;2022-08-27T15:17:32;25.60;62.40
67899;DHT22;54699;51.796;10.956;2022-08-27T15:19:59;25.60;62.40
67899;DHT22;54699;51.796;10.956;2022-08-27T15:22:27;25.60;62.30
67899;DHT22;54699;51.796;10.956;2022-08-27T15:24:58;25.60;62.40
67899;DHT22;54699;51.796;10.956;2022-08-27T15:27:26;25.60;62.30
67899;DHT22;54699;51.796;10.956;2022-08-27T15:29:54;25.60;62.20
67899;DHT22;54699;51.796;10.956;2022-08-27T15:32:22;25.70;62.30
67899;DHT22;54699;51.796;10.956;2022-08-27T15:34:52;25.60;62.20
67899;DHT22;54699;51.796;10.956;2022-08-27T15:37:19;25.60;62.10